Time;durP1;ratioP1;P1;durP2;ratioP2;P2;SDS_P1;SDS_P2;PMS_P1;PMS_P2;Temp;Humidity;BMP_temperature;BMP_pressure;BME280_temperature;BME280_humidity;BME280_pressure;Samples;Min_cycle;Max_cycle;Signal;HPM_P1;HPM_P2
2021/12/20 00:01:43;;;;;;;18.77;6.80;;;;;;;5.28;95.65;102710.31;4995995;28;20110;-56
2021/12/20 00:04:08;;;;;;;21.55;7.38;;;;;;;5.27;95.74;102713.31;4996581;28;20125;-58
2021/12/20 00:06:34;;;;;;;17.20;6.63;;;;;;;5.27;96.03;102707.81;4995613;28;20101;-56
2021/12/20 00:08:59;;;;;;;15.63;6.65;;;;;;;5.28;96.34;102712.25;4996281;28;20362;-58
2021/12/20 00:11:24;;;;;;;18.33;7.20;;;;;;;5.27;96.05;102710.56;4996078;28;20026;-56
2021/12/20 00:13:49;;;;;;;18.05;7.30;;;;;;;5.25;96.25;102709.94;4995055;28;20439;-55
2021/12/20 00:16:15;;;;;;;18.65;7.63;;;;;;;5.25;96.19;102721.72;4995596;28;20473;-58
2021/12/20 00:18:42;;;;;;;24.23;7.63;;;;;;;5.21;89.12;102709.53;4995531;28;20045;-59
2021/12/20 00:21:08;;;;;;;21.40;7.18;;;;;;;5.23;88.68;102706.56;4995907;28;20053;-58
2021/12/20 00:23:33;;;;;;;22.27;7.30;;;;;;;5.23;88.90;102714.81;4995647;28;20478;-55
2021/12/20 00:25:58;;;;;;;19.13;6.72;;;;;;;5.23;90.20;102710.16;4995709;28;20030;-57
2021/12/20 00:28:24;;;;;;;21.10;7.28;;;;;;;5.21;90.39;102715.03;4995224;28;20102;-56
2021/12/20 00:30:49;;;;;;;16.90;6.80;;;;;;;5.20;91.18;102705.13;4995809;28;20113;-57
2021/12/20 00:33:15;;;;;;;18.13;7.00;;;;;;;5.19;91.34;102705.34;4995390;28;20027;-56
2021/12/20 00:35:41;;;;;;;20.13;7.40;;;;;;;5.18;91.85;102703.66;4995380;28;20058;-56
2021/12/20 00:40:50;;;;;;;18.98;7.57;;;;;;;5.19;92.89;102708.94;4996169;28;20440;-58
2021/12/20 00:43:16;;;;;;;19.48;8.15;;;;;;;5.20;92.49;102712.50;4994928;28;20430;-57
2021/12/20 00:45:41;;;;;;;23.30;7.55;;;;;;;5.21;92.27;102703.19;4995197;28;20144;-57
2021/12/20 00:48:07;;;;;;;20.38;7.05;;;;;;;5.22;92.68;102702.13;4995347;28;20050;-57
2021/12/20 00:50:33;;;;;;;17.73;7.18;;;;;;;5.20;92.03;102704.25;4995503;28;20061;-57
2021/12/20 00:52:58;;;;;;;18.77;7.28;;;;;;;5.17;92.88;102705.56;4995391;28;20092;-57
2021/12/20 00:55:25;;;;;;;18.20;7.28;;;;;;;5.18;92.67;102698.19;4995367;28;20465;-56
2021/12/20 00:57:53;;;;;;;22.70;8.10;;;;;;;5.14;92.61;102695.88;4994931;28;20042;-57
2021/12/20 01:00:24;;;;;;;20.15;7.55;;;;;;;5.10;93.09;102693.81;4994445;28;20034;-56
2021/12/20 01:02:51;;;;;;;23.00;7.72;;;;;;;5.10;91.68;102711.09;4994129;28;20033;-58
2021/12/20 01:05:17;;;;;;;19.73;7.75;;;;;;;5.10;92.47;102704.78;4994673;28;20069;-56
2021/12/20 01:07:42;;;;;;;19.40;7.38;;;;;;;5.07;91.46;102703.31;4994866;28;20037;-58
2021/12/20 01:10:09;;;;;;;22.52;7.60;;;;;;;5.05;91.89;102693.66;4995361;28;20027;-57
2021/12/20 01:12:44;;;;;;;20.30;7.05;;;;;;;5.00;91.91;102686.09;4993799;28;20030;-57
2021/12/20 01:15:13;;;;;;;21.90;7.35;;;;;;;5.06;91.32;102704.38;4994991;28;20501;-58
2021/12/20 01:17:38;;;;;;;20.30;7.20;;;;;;;5.08;90.99;102709.63;4993912;28;20042;-57
2021/12/20 01:20:06;;;;;;;18.23;7.40;;;;;;;5.10;91.54;102702.84;4994067;28;20030;-58
2021/12/20 01:22:31;;;;;;;23.50;7.68;;;;;;;5.09;90.54;102692.97;4994362;28;20026;-56
2021/12/20 01:24:57;;;;;;;22.05;8.25;;;;;;;5.11;90.45;102692.75;4994547;28;20032;-57
2021/12/20 01:27:22;;;;;;;23.15;7.53;;;;;;;5.08;88.37;102693.19;4994245;28;20117;-57
2021/12/20 01:29:47;;;;;;;21.58;6.93;;;;;;;5.10;89.37;102699.28;4994848;28;20026;-58
2021/12/20 01:32:13;;;;;;;19.70;7.38;;;;;;;5.09;88.34;102701.22;4994637;28;20023;-57
2021/12/20 01:34:38;;;;;;;21.23;7.13;;;;;;;5.11;89.26;102707.28;4993843;28;20474;-56
2021/12/20 01:37:04;;;;;;;21.30;7.63;;;;;;;5.07;88.57;102710.69;4993939;28;20117;-56
2021/12/20 01:39:29;;;;;;;21.77;7.85;;;;;;;5.04;88.43;102708.44;4995055;28;20030;-58
2021/12/20 01:41:55;;;;;;;21.15;7.45;;;;;;;5.02;88.79;102697.66;4994169;28;20022;-56
2021/12/20 01:44:21;;;;;;;20.45;7.90;;;;;;;4.98;88.76;102693.69;4993964;28;20115;-57
2021/12/20 01:46:46;;;;;;;26.77;7.88;;;;;;;5.00;88.59;102689.66;4994288;28;20030;-56
2021/12/20 01:49:15;;;;;;;16.33;7.68;;;;;;;4.97;88.44;102695.56;4993678;28;20509;-56
2021/12/20 01:52:03;;;;;;;22.42;7.05;;;;;;;4.91;85.22;102681.94;4994436;28;20533;-57
2021/12/20 01:54:30;;;;;;;23.70;8.20;;;;;;;4.99;86.21;102698.13;4992961;28;20084;-56
2021/12/20 01:56:56;;;;;;;25.20;7.80;;;;;;;5.01;87.02;102679.50;4993115;28;20397;-57
2021/12/20 01:59:21;;;;;;;20.25;7.40;;;;;;;5.02;86.61;102692.16;4993901;28;20034;-57
2021/12/20 02:01:47;;;;;;;24.10;8.05;;;;;;;5.03;86.78;102701.25;4993910;28;20030;-57
2021/12/20 02:04:13;;;;;;;22.75;7.68;;;;;;;5.03;87.90;102687.53;4993295;28;20524;-57
2021/12/20 02:06:40;;;;;;;19.10;8.10;;;;;;;5.04;87.27;102695.53;4993964;28;20089;-57
2021/12/20 02:09:15;;;;;;;25.40;7.75;;;;;;;4.98;87.92;102679.97;4993823;28;20026;-56
2021/12/20 02:11:43;;;;;;;21.25;8.20;;;;;;;5.03;87.37;102691.09;4993527;28;20095;-56
2021/12/20 02:14:10;;;;;;;21.65;8.30;;;;;;;4.96;86.81;102690.31;4993526;28;20046;-56
2021/12/20 02:16:36;;;;;;;23.65;7.25;;;;;;;4.97;87.59;102694.75;4993754;28;20031;-56
2021/12/20 02:19:03;;;;;;;20.67;7.63;;;;;;;4.95;88.02;102686.75;4993770;28;20116;-57
2021/12/20 02:21:29;;;;;;;21.73;7.53;;;;;;;4.96;87.94;102687.59;4993435;28;20033;-56
2021/12/20 02:23:54;;;;;;;24.02;7.93;;;;;;;4.95;87.79;102680.41;4993430;28;20026;-58
2021/12/20 02:26:22;;;;;;;23.98;8.55;;;;;;;4.90;88.38;102672.84;4992643;28;20034;-56
2021/12/20 02:28:50;;;;;;;21.83;8.00;;;;;;;4.95;87.16;102683.16;4992973;28;20030;-57
2021/12/20 02:38:57;;;;;;;26.88;8.88;;;;;;;4.94;86.76;102679.59;4993201;28;20086;-56
2021/12/20 02:41:29;;;;;;;22.42;7.63;;;;;;;4.88;87.44;102676.88;4993690;28;20470;-56
2021/12/20 02:43:58;;;;;;;23.27;8.57;;;;;;;4.90;87.25;102677.50;4992816;28;20469;-56
2021/12/20 02:49:07;;;;;;;18.85;7.95;;;;;;;4.93;88.75;102679.78;4992341;28;20132;-55
2021/12/20 02:51:32;;;;;;;21.00;7.43;;;;;;;4.91;87.89;102674.53;4993296;28;20519;-56
2021/12/20 02:54:01;;;;;;;22.95;7.60;;;;;;;4.89;87.02;102671.16;4993006;28;20102;-56
2021/12/20 02:56:26;;;;;;;23.20;7.38;;;;;;;4.88;87.88;102683.19;4993251;28;20496;-56
2021/12/20 02:58:52;;;;;;;21.88;8.00;;;;;;;4.90;88.47;102694.78;4992523;28;20106;-56
2021/12/20 03:01:19;;;;;;;21.58;7.90;;;;;;;4.91;88.76;102680.03;4993225;28;20034;-58
2021/12/20 03:03:45;;;;;;;20.88;7.75;;;;;;;4.90;87.79;102675.59;4993639;28;20114;-56
2021/12/20 03:06:19;;;;;;;22.55;8.18;;;;;;;4.88;87.44;102677.72;4993172;28;20109;-56
2021/12/20 03:08:49;;;;;;;23.60;7.90;;;;;;;4.84;87.18;102682.81;4993186;28;20030;-56
2021/12/20 03:11:15;;;;;;;20.52;7.63;;;;;;;4.83;87.97;102680.31;4992389;28;20422;-55
2021/12/20 03:13:44;;;;;;;24.77;8.20;;;;;;;4.79;87.74;102682.66;4992845;28;20026;-56
2021/12/20 03:16:09;;;;;;;23.35;7.55;;;;;;;4.78;86.86;102678.22;4992136;28;20088;-55
2021/12/20 03:18:34;;;;;;;25.10;8.43;;;;;;;4.76;87.23;102672.13;4991660;28;20030;-55
2021/12/20 03:21:00;;;;;;;20.38;7.20;;;;;;;4.78;86.93;102682.84;4992527;28;20359;-55
2021/12/20 03:23:25;;;;;;;24.05;8.85;;;;;;;4.79;87.43;102677.16;4992374;28;20029;-55
2021/12/20 03:25:50;;;;;;;23.33;7.90;;;;;;;4.80;87.33;102678.00;4992586;28;20038;-55
2021/12/20 03:28:16;;;;;;;24.83;8.55;;;;;;;4.81;87.58;102683.28;4993144;28;20490;-56
2021/12/20 03:30:41;;;;;;;24.77;8.15;;;;;;;4.80;87.14;102678.84;4992904;28;20109;-55
2021/12/20 03:33:06;;;;;;;21.80;7.93;;;;;;;4.83;87.85;102678.38;4992730;28;20023;-55
2021/12/20 03:35:32;;;;;;;21.30;8.80;;;;;;;4.80;87.73;102681.59;4995245;28;20525;-56
2021/12/20 03:37:57;;;;;;;22.05;8.77;;;;;;;4.80;87.68;102676.09;4996041;28;20161;-56
2021/12/20 03:40:23;;;;;;;23.15;8.00;;;;;;;4.80;87.20;102678.84;4996502;28;20049;-55
2021/12/20 03:42:48;;;;;;;20.70;8.27;;;;;;;4.81;87.43;102672.31;4996530;28;20026;-55
2021/12/20 03:45:14;;;;;;;22.77;7.82;;;;;;;4.83;87.36;102683.88;4996503;28;20089;-57
2021/12/20 03:47:41;;;;;;;24.45;8.18;;;;;;;4.82;87.26;102684.09;4995553;28;20057;-57
2021/12/20 03:50:08;;;;;;;23.30;8.00;;;;;;;4.77;88.08;102671.06;4996550;28;20036;-58
2021/12/20 03:52:33;;;;;;;23.30;7.70;;;;;;;4.80;87.49;102672.50;4996608;28;20117;-58
2021/12/20 03:55:01;;;;;;;23.88;8.27;;;;;;;4.76;86.38;102674.84;4996288;28;20450;-58
2021/12/20 03:57:26;;;;;;;26.20;8.43;;;;;;;4.78;87.62;102677.38;4996185;28;20027;-58
2021/12/20 03:59:53;;;;;;;25.17;8.23;;;;;;;4.77;86.83;102672.97;4996360;28;20022;-56
2021/12/20 04:02:20;;;;;;;24.65;8.15;;;;;;;4.75;85.94;102675.91;4996126;28;20073;-58
2021/12/20 04:04:46;;;;;;;23.90;8.10;;;;;;;4.77;86.43;102672.97;4996341;28;20037;-57
2021/12/20 04:07:12;;;;;;;21.33;6.97;;;;;;;4.79;87.18;102673.56;4996050;28;20034;-56
2021/12/20 04:09:37;;;;;;;23.23;8.68;;;;;;;4.77;86.67;102671.06;4996355;28;20077;-56
2021/12/20 04:12:03;;;;;;;21.70;7.30;;;;;;;4.78;85.86;102672.75;4996019;28;20080;-55
2021/12/20 04:14:28;;;;;;;25.42;7.97;;;;;;;4.77;85.59;102667.50;4995678;28;20031;-56
2021/12/20 04:16:53;;;;;;;23.52;7.95;;;;;;;4.77;85.73;102664.75;4995675;28;20474;-56
2021/12/20 04:19:18;;;;;;;26.20;8.75;;;;;;;4.76;84.77;102672.13;4995772;28;20034;-56
2021/12/20 04:21:44;;;;;;;23.67;8.10;;;;;;;4.72;84.82;102668.16;4995622;28;20466;-56
2021/12/20 04:24:09;;;;;;;23.77;8.00;;;;;;;4.72;85.22;102670.91;4996067;28;20034;-56
2021/12/20 04:26:34;;;;;;;23.15;8.25;;;;;;;4.73;85.14;102669.81;4995283;28;20050;-57
2021/12/20 04:28:59;;;;;;;22.25;7.80;;;;;;;4.72;84.60;102670.03;4995282;28;20026;-56
2021/12/20 04:31:25;;;;;;;22.05;7.40;;;;;;;4.72;82.75;102678.25;4996015;28;20076;-57
2021/12/20 04:33:50;;;;;;;23.20;8.82;;;;;;;4.72;83.78;102676.38;4995693;28;20489;-56
2021/12/20 04:36:16;;;;;;;24.05;8.20;;;;;;;4.74;82.80;102674.22;4993591;28;20057;-56
2021/12/20 04:38:41;;;;;;;23.20;8.65;;;;;;;4.73;83.10;102669.81;4995730;28;20120;-57
2021/12/20 04:41:06;;;;;;;22.77;7.45;;;;;;;4.73;83.21;102664.31;4995484;28;20068;-57
2021/12/20 04:43:32;;;;;;;25.02;7.90;;;;;;;4.76;82.82;102665.81;4995338;28;20074;-58
2021/12/20 04:45:57;;;;;;;27.70;8.10;;;;;;;4.77;82.16;102667.50;4995470;28;20493;-56
2021/12/20 04:48:22;;;;;;;23.83;7.95;;;;;;;4.75;81.88;102670.44;4995519;28;20042;-56
2021/12/20 04:50:48;;;;;;;25.45;8.07;;;;;;;4.76;82.56;102669.38;4995534;28;20173;-58
2021/12/20 04:53:13;;;;;;;25.92;8.80;;;;;;;4.76;81.94;102668.53;4995090;28;20030;-56
2021/12/20 04:55:39;;;;;;;26.15;8.50;;;;;;;4.75;82.75;102672.34;4995336;28;20538;-56
2021/12/20 04:58:06;;;;;;;21.20;7.88;;;;;;;4.67;82.51;102670.69;4994793;28;20034;-56
2021/12/20 05:00:33;;;;;;;27.13;8.88;;;;;;;4.61;81.80;102668.84;4995336;28;20030;-55
2021/12/20 05:02:59;;;;;;;24.25;8.18;;;;;;;4.65;81.89;102681.03;4995435;28;20051;-57
2021/12/20 05:05:24;;;;;;;22.73;8.27;;;;;;;4.66;82.39;102679.97;4994610;28;20524;-56
2021/12/20 05:07:50;;;;;;;25.83;8.60;;;;;;;4.66;83.18;102678.09;4994921;28;20470;-57
2021/12/20 05:10:29;;;;;;;23.30;8.52;;;;;;;4.66;83.27;102677.25;4994754;28;20124;-57
2021/12/20 05:12:58;;;;;;;23.75;8.93;;;;;;;4.65;83.56;102689.25;4995323;28;20038;-57
2021/12/20 05:15:24;;;;;;;23.50;8.90;;;;;;;4.64;83.07;102682.09;4994974;28;20121;-57
2021/12/20 05:17:50;;;;;;;22.58;9.38;;;;;;;4.62;83.02;102682.34;4994889;28;20030;-57
2021/12/20 05:20:16;;;;;;;20.55;8.95;;;;;;;4.62;82.37;102689.72;4994526;28;20073;-57
2021/12/20 05:22:41;;;;;;;22.60;8.35;;;;;;;4.66;83.56;102682.72;4994748;28;20053;-57
2021/12/20 05:25:07;;;;;;;30.95;10.20;;;;;;;4.65;83.26;102679.16;4994930;28;20030;-57
2021/12/20 05:27:32;;;;;;;21.08;8.68;;;;;;;4.65;83.06;102679.16;4994006;28;20034;-56
2021/12/20 05:29:59;;;;;;;22.88;8.20;;;;;;;4.65;82.07;102686.53;4994019;28;20428;-57
2021/12/20 05:32:25;;;;;;;27.05;11.40;;;;;;;4.63;82.29;102700.47;4994900;28;20030;-58
2021/12/20 05:34:50;;;;;;;26.48;9.88;;;;;;;4.62;83.52;102698.78;4994634;28;20033;-57
2021/12/20 05:37:16;;;;;;;25.73;9.23;;;;;;;4.62;81.30;102690.56;4994279;28;20114;-56
2021/12/20 05:39:41;;;;;;;24.88;9.40;;;;;;;4.62;81.28;102697.94;4993808;28;20031;-57
2021/12/20 05:42:07;;;;;;;23.73;9.35;;;;;;;4.61;81.06;102696.28;4994313;28;20018;-56
2021/12/20 05:44:33;;;;;;;27.02;9.68;;;;;;;4.64;80.55;102698.56;4994218;28;20046;-56
2021/12/20 05:46:58;;;;;;;22.85;9.10;;;;;;;4.63;81.37;102686.75;4994173;28;20029;-57
2021/12/20 05:49:23;;;;;;;26.83;10.13;;;;;;;4.65;80.73;102700.22;4994231;28;20050;-56
2021/12/20 05:51:49;;;;;;;26.73;8.85;;;;;;;4.64;80.89;102693.94;4994559;28;20031;-56
2021/12/20 05:54:14;;;;;;;28.55;9.98;;;;;;;4.63;82.33;102699.63;4993536;28;20034;-55
2021/12/20 05:56:39;;;;;;;24.75;10.35;;;;;;;4.62;82.05;102701.53;4994475;28;20042;-57
2021/12/20 05:59:05;;;;;;;23.77;9.23;;;;;;;4.61;82.16;102699.00;4993026;28;20033;-56
2021/12/20 06:01:30;;;;;;;22.60;9.45;;;;;;;4.58;81.27;102702.19;4993008;28;20113;-55
2021/12/20 06:03:55;;;;;;;23.27;8.95;;;;;;;4.57;81.33;102693.13;4993492;28;20031;-55
2021/12/20 06:06:21;;;;;;;24.25;9.48;;;;;;;4.56;81.46;102685.97;4993970;28;20038;-56
2021/12/20 06:08:46;;;;;;;23.52;9.50;;;;;;;4.56;80.89;102690.59;4993586;28;20030;-55
2021/12/20 06:11:11;;;;;;;22.23;9.50;;;;;;;4.56;80.23;102698.81;4993911;28;20049;-56
2021/12/20 06:13:37;;;;;;;23.55;9.68;;;;;;;4.55;80.72;102697.13;4993629;28;20150;-57
2021/12/20 06:16:02;;;;;;;24.77;9.20;;;;;;;4.53;80.32;102702.84;4994000;28;20113;-58
2021/12/20 06:18:27;;;;;;;24.48;8.98;;;;;;;4.52;79.58;102704.75;4994041;28;20038;-57
2021/12/20 06:20:53;;;;;;;21.60;7.57;;;;;;;4.52;81.15;102701.16;4993086;28;20477;-57
2021/12/20 06:23:18;;;;;;;22.83;7.72;;;;;;;4.51;74.77;102692.09;4993558;28;20030;-56
2021/12/20 06:25:43;;;;;;;22.75;8.20;;;;;;;4.54;73.68;102693.56;4992968;28;20065;-56
2021/12/20 06:28:08;;;;;;;22.75;7.60;;;;;;;4.57;74.70;102697.75;4991676;28;20034;-57
2021/12/20 06:30:34;;;;;;;19.98;7.60;;;;;;;4.56;72.95;102702.41;4993630;28;20462;-57
2021/12/20 06:32:59;;;;;;;21.08;7.85;;;;;;;4.57;71.88;102704.09;4993653;28;20033;-58
2021/12/20 06:35:24;;;;;;;21.02;8.00;;;;;;;4.58;70.52;102700.28;4993214;28;20045;-57
2021/12/20 06:37:59;;;;;;;21.70;8.23;;;;;;;4.60;70.18;102700.91;4993648;28;20030;-58
2021/12/20 06:40:25;;;;;;;22.63;8.38;;;;;;;4.60;70.91;102714.59;4993642;28;20034;-58
2021/12/20 06:42:50;;;;;;;20.83;8.63;;;;;;;4.61;72.13;102699.00;4993442;28;20026;-57
2021/12/20 06:45:16;;;;;;;19.35;8.05;;;;;;;4.58;71.10;102703.00;4993866;28;20473;-57
2021/12/20 06:47:41;;;;;;;21.20;8.00;;;;;;;4.58;71.30;102713.97;4993430;28;20065;-57
2021/12/20 06:50:07;;;;;;;25.65;8.90;;;;;;;4.59;72.48;102718.41;4993791;28;20469;-57
2021/12/20 06:52:32;;;;;;;21.10;8.73;;;;;;;4.59;73.30;102715.66;4993633;28;20035;-56
2021/12/20 06:54:57;;;;;;;21.92;7.72;;;;;;;4.58;72.67;102715.88;4992262;28;20540;-56
2021/12/20 06:57:23;;;;;;;24.00;8.70;;;;;;;4.59;75.60;102721.13;4993631;28;20140;-57
2021/12/20 06:59:48;;;;;;;23.25;8.20;;;;;;;4.58;75.50;102724.13;4993506;28;20030;-55
2021/12/20 07:02:14;;;;;;;24.60;8.70;;;;;;;4.56;74.67;102727.09;4993262;28;20049;-57
2021/12/20 07:04:39;;;;;;;23.25;8.52;;;;;;;4.54;75.38;102726.47;4993486;28;20027;-57
2021/12/20 07:07:05;;;;;;;26.77;9.30;;;;;;;4.50;75.57;102731.53;4993588;28;20022;-58
2021/12/20 07:09:30;;;;;;;21.80;9.25;;;;;;;4.49;76.59;102731.72;4993870;28;20490;-57
2021/12/20 07:11:55;;;;;;;23.83;8.80;;;;;;;4.48;76.97;102732.81;4997354;28;20065;-58
2021/12/20 07:14:26;;;;;;;18.33;8.43;;;;;;;4.45;77.62;102731.34;4997597;28;20305;-57
2021/12/20 07:16:51;;;;;;;23.30;9.07;;;;;;;4.48;78.37;102725.44;4997333;28;20100;-57
2021/12/20 07:19:16;;;;;;;26.13;9.98;;;;;;;4.50;79.21;102723.31;4996589;28;20054;-56
2021/12/20 07:21:41;;;;;;;21.98;9.10;;;;;;;4.49;78.86;102734.47;4996965;28;20038;-57
2021/12/20 07:24:07;;;;;;;26.80;9.90;;;;;;;4.45;78.76;102730.50;4997185;28;20394;-57
2021/12/20 07:26:32;;;;;;;25.73;9.20;;;;;;;4.46;79.11;102738.50;4995815;28;20030;-57
2021/12/20 07:28:58;;;;;;;24.80;9.25;;;;;;;4.45;79.79;102741.47;4997075;28;20465;-57
2021/12/20 07:31:23;;;;;;;23.98;9.30;;;;;;;4.45;80.26;102733.25;4997114;28;20030;-58
2021/12/20 07:33:48;;;;;;;21.92;9.77;;;;;;;4.43;80.00;102736.22;4997153;28;20027;-56
2021/12/20 07:36:15;;;;;;;22.95;9.63;;;;;;;4.41;80.50;102732.84;4997264;28;20026;-57
2021/12/20 07:38:41;;;;;;;27.70;9.60;;;;;;;4.40;80.26;102728.44;4996637;28;20106;-57
2021/12/20 07:41:06;;;;;;;25.25;9.23;;;;;;;4.36;80.02;102736.25;4997005;28;20062;-58
2021/12/20 07:43:32;;;;;;;25.80;9.63;;;;;;;4.39;80.74;102729.47;4996793;28;20026;-58
2021/12/20 07:45:57;;;;;;;24.67;9.70;;;;;;;4.38;79.41;102733.28;4997056;28;20084;-59
2021/12/20 07:48:22;;;;;;;23.80;9.05;;;;;;;4.38;79.93;102733.28;4996400;28;20405;-58
2021/12/20 07:50:49;;;;;;;25.63;9.63;;;;;;;4.37;77.23;102734.34;4997145;28;20073;-58
2021/12/20 07:53:15;;;;;;;22.83;8.70;;;;;;;4.40;78.66;102735.78;4996329;28;20027;-56
2021/12/20 07:55:41;;;;;;;23.10;8.77;;;;;;;4.41;77.80;102740.22;4996054;28;20034;-56
2021/12/20 07:58:06;;;;;;;23.55;9.13;;;;;;;4.40;77.76;102741.28;4994277;28;20026;-55
2021/12/20 08:00:32;;;;;;;25.25;8.80;;;;;;;4.42;80.07;102737.28;4992856;28;20053;-56
2021/12/20 08:02:58;;;;;;;21.80;8.50;;;;;;;4.42;79.25;102731.78;4994408;28;20133;-58
2021/12/20 08:05:24;;;;;;;20.98;7.70;;;;;;;4.45;79.57;102733.25;4994004;28;20026;-58
2021/12/20 08:07:50;;;;;;;23.10;9.25;;;;;;;4.44;78.65;102740.63;4993901;28;20029;-56
2021/12/20 08:10:21;;;;;;;21.05;8.23;;;;;;;4.40;79.86;102742.13;4994160;28;20073;-57
2021/12/20 08:12:46;;;;;;;23.63;8.32;;;;;;;4.43;80.71;102746.31;4994214;28;20022;-56
2021/12/20 08:15:13;;;;;;;20.33;7.65;;;;;;;4.41;79.58;102740.22;4994299;28;20065;-56
2021/12/20 08:17:38;;;;;;;25.55;8.82;;;;;;;4.43;80.21;102744.44;4994136;28;20080;-56
2021/12/20 08:20:05;;;;;;;22.90;8.15;;;;;;;4.46;80.22;102751.38;4993825;28;20038;-56
2021/12/20 08:22:30;;;;;;;25.38;8.95;;;;;;;4.45;80.21;102750.53;4993107;28;20034;-56
2021/12/20 08:24:56;;;;;;;26.73;8.57;;;;;;;4.45;80.90;102756.00;4992601;28;20042;-56
2021/12/20 08:27:21;;;;;;;22.52;7.95;;;;;;;4.47;81.29;102756.63;4994135;28;20030;-56
2021/12/20 08:29:46;;;;;;;21.73;8.45;;;;;;;4.52;81.47;102754.09;4992823;28;20030;-56
2021/12/20 08:32:12;;;;;;;22.75;8.55;;;;;;;4.52;80.93;102745.00;4993583;28;20543;-56
2021/12/20 08:34:37;;;;;;;26.15;8.80;;;;;;;4.55;81.14;102749.22;4992150;28;20169;-56
2021/12/20 08:37:03;;;;;;;22.45;8.40;;;;;;;4.59;81.49;102758.69;4993525;28;20030;-56
2021/12/20 08:39:29;;;;;;;24.75;8.68;;;;;;;4.61;81.71;102756.59;4993579;28;20070;-57
2021/12/20 08:41:55;;;;;;;24.40;8.07;;;;;;;4.63;81.67;102758.03;4994381;28;20118;-56
2021/12/20 08:44:21;;;;;;;23.63;8.95;;;;;;;4.66;81.53;102751.25;4994824;28;20373;-58
2021/12/20 08:46:46;;;;;;;24.08;8.40;;;;;;;4.67;81.66;102761.19;4994582;28;20467;-56
2021/12/20 08:49:11;;;;;;;26.52;8.40;;;;;;;4.69;80.75;102756.31;4994024;28;20152;-56
2021/12/20 08:51:37;;;;;;;23.33;8.70;;;;;;;4.69;81.28;102753.59;4993415;28;20451;-56
2021/12/20 08:54:03;;;;;;;25.25;8.73;;;;;;;4.68;80.64;102758.19;4993492;28;20040;-58
2021/12/20 08:56:29;;;;;;;27.02;9.90;;;;;;;4.65;80.63;102757.81;4993356;28;20045;-56
2021/12/20 08:58:54;;;;;;;27.88;9.18;;;;;;;4.69;81.33;102761.81;4993446;28;20038;-56
2021/12/20 09:01:19;;;;;;;25.58;9.57;;;;;;;4.71;80.19;102759.69;4992709;28;20038;-58
2021/12/20 09:03:45;;;;;;;26.10;9.60;;;;;;;4.71;80.77;102765.19;4995524;28;20027;-57
2021/12/20 09:06:11;;;;;;;24.88;8.60;;;;;;;4.71;80.43;102759.69;4995253;28;20029;-57
2021/12/20 09:08:38;;;;;;;27.60;9.40;;;;;;;4.71;81.09;102769.81;4995004;28;20027;-56
2021/12/20 09:11:04;;;;;;;26.65;8.52;;;;;;;4.69;80.31;102768.13;4994776;28;20034;-57
2021/12/20 09:13:29;;;;;;;23.58;9.25;;;;;;;4.71;80.99;102767.91;4995353;28;20037;-57
2021/12/20 09:15:59;;;;;;;22.75;8.43;;;;;;;4.73;80.35;102765.78;4995605;28;20030;-58
2021/12/20 09:18:25;;;;;;;23.85;8.40;;;;;;;4.81;80.78;102767.44;4995173;28;20038;-56
2021/12/20 09:20:51;;;;;;;22.88;8.10;;;;;;;4.84;81.04;102767.81;4995087;28;20029;-57
2021/12/20 09:23:17;;;;;;;21.33;8.40;;;;;;;4.87;80.10;102766.53;4994886;28;20034;-57
2021/12/20 09:25:43;;;;;;;25.02;8.20;;;;;;;4.89;79.76;102772.66;4995120;28;20095;-56
2021/12/20 09:28:10;;;;;;;24.08;8.43;;;;;;;4.90;79.80;102762.53;4994881;28;20069;-58
2021/12/20 09:30:37;;;;;;;24.05;8.20;;;;;;;4.93;79.16;102775.78;4995061;28;20023;-57
2021/12/20 09:33:04;;;;;;;22.65;8.02;;;;;;;4.95;80.49;102773.66;4992874;28;20125;-55
2021/12/20 09:35:30;;;;;;;24.85;8.80;;;;;;;4.93;79.19;102773.03;4994762;28;20039;-57
2021/12/20 09:37:55;;;;;;;22.25;7.70;;;;;;;4.96;79.24;102778.94;4994724;28;20026;-56
2021/12/20 09:40:33;;;;;;;23.58;8.60;;;;;;;4.95;80.36;102777.28;4993430;28;20516;-57
2021/12/20 09:43:01;;;;;;;23.83;7.72;;;;;;;5.00;80.15;102785.66;4994700;28;20035;-58
2021/12/20 09:45:27;;;;;;;26.35;8.13;;;;;;;5.03;79.73;102787.13;4994834;28;20034;-57
2021/12/20 09:47:52;;;;;;;23.75;8.15;;;;;;;5.03;79.46;102794.53;4994382;28;20046;-58
2021/12/20 09:50:19;;;;;;;25.23;8.02;;;;;;;5.06;80.29;102789.44;4994614;28;20033;-57
2021/12/20 09:52:45;;;;;;;25.02;10.50;;;;;;;5.06;79.72;102792.19;4994459;28;20030;-57
2021/12/20 09:55:14;;;;;;;21.85;8.25;;;;;;;5.08;79.29;102786.47;4993692;28;20389;-58
2021/12/20 09:57:42;;;;;;;26.42;8.02;;;;;;;5.12;79.37;102801.44;4994456;28;20117;-59
2021/12/20 10:00:09;;;;;;;22.65;7.43;;;;;;;5.09;78.18;102796.38;4993257;28;20026;-58
2021/12/20 10:02:35;;;;;;;25.73;7.85;;;;;;;5.10;78.96;102795.31;4994560;28;20026;-57
2021/12/20 10:05:00;;;;;;;22.35;7.68;;;;;;;5.12;79.35;102796.78;4994310;28;20112;-57
2021/12/20 10:07:28;;;;;;;23.50;9.40;;;;;;;5.17;79.64;102804.34;4994499;28;20034;-57
2021/12/20 10:09:53;;;;;;;26.58;8.40;;;;;;;5.21;79.59;102793.75;4992800;28;20023;-57
2021/12/20 10:12:24;;;;;;;24.15;8.23;;;;;;;5.19;78.08;102793.16;4994267;28;20029;-57
2021/12/20 10:15:04;;;;;;;25.52;8.88;;;;;;;5.19;78.28;102804.13;4994186;28;20474;-57
2021/12/20 10:17:52;;;;;;;22.55;8.05;;;;;;;5.14;77.57;102791.09;4994386;28;20046;-57
2021/12/20 10:20:23;;;;;;;26.70;9.40;;;;;;;5.11;78.38;102792.34;4994083;28;20026;-57
2021/12/20 10:22:52;;;;;;;24.90;8.18;;;;;;;5.20;78.67;102805.78;4994460;28;20030;-57
2021/12/20 10:25:20;;;;;;;23.33;8.20;;;;;;;5.24;78.21;102796.88;4994199;28;20517;-57
2021/12/20 10:27:46;;;;;;;24.15;8.43;;;;;;;5.25;78.27;102795.00;4993743;28;20391;-57
2021/12/20 10:30:20;;;;;;;21.45;8.00;;;;;;;5.25;77.91;102800.50;4993972;28;20046;-57
2021/12/20 10:32:46;;;;;;;20.95;7.93;;;;;;;5.27;78.83;102801.13;4994031;28;20081;-57
2021/12/20 10:35:35;;;;;;;23.20;7.63;;;;;;;5.27;78.67;102790.13;4993892;28;20023;-57
2021/12/20 10:38:25;;;;;;;21.58;8.25;;;;;;;5.27;78.90;102773.69;4993897;28;20092;-57
2021/12/20 10:40:55;;;;;;;22.52;8.50;;;;;;;5.37;79.07;102781.41;4994330;28;20100;-57
2021/12/20 10:43:24;;;;;;;25.45;7.90;;;;;;;5.37;78.27;102787.75;4993594;28;20027;-57
2021/12/20 10:45:51;;;;;;;24.60;8.40;;;;;;;5.38;78.46;102791.31;4993785;28;20018;-58
2021/12/20 10:48:16;;;;;;;23.25;7.90;;;;;;;5.42;79.33;102792.56;4992181;28;20146;-57
2021/12/20 10:50:44;;;;;;;21.73;7.80;;;;;;;5.44;79.16;102793.16;4993925;28;20108;-57
2021/12/20 10:53:26;;;;;;;25.55;8.18;;;;;;;5.51;78.40;102791.22;4993763;28;20034;-57
2021/12/20 10:56:00;;;;;;;23.08;8.27;;;;;;;5.49;77.96;102789.75;4993607;28;20034;-57
2021/12/20 10:58:39;;;;;;;21.90;8.23;;;;;;;5.53;77.92;102788.25;4993595;28;20105;-57
2021/12/20 11:01:16;;;;;;;22.13;8.02;;;;;;;5.54;77.96;102782.50;4993730;28;20037;-57
2021/12/20 11:03:45;;;;;;;23.70;9.05;;;;;;;5.60;78.43;102786.28;4993857;28;20069;-56
2021/12/20 11:09:05;;;;;;;22.50;7.82;;;;;;;5.58;78.79;102786.50;4993911;28;20102;-58
2021/12/20 11:11:35;;;;;;;22.45;7.90;;;;;;;5.47;77.56;102776.25;4993617;28;20481;-55
2021/12/20 11:14:02;;;;;;;23.42;8.07;;;;;;;5.45;77.14;102773.75;4993589;28;20057;-56
2021/12/20 11:16:35;;;;;;;21.55;8.20;;;;;;;5.40;78.24;102765.31;4993574;28;20053;-57
2021/12/20 11:19:37;;;;;;;26.08;8.00;;;;;;;5.48;78.52;102780.69;4993602;28;20034;-56
2021/12/20 11:22:21;;;;;;;23.05;8.68;;;;;;;5.44;77.94;102771.19;4993691;28;20034;-56
2021/12/20 11:24:54;;;;;;;21.40;8.50;;;;;;;5.35;77.40;102756.06;4993744;28;20045;-56
2021/12/20 11:27:22;;;;;;;23.65;8.15;;;;;;;5.40;77.67;102770.81;4992298;28;20038;-56
2021/12/20 11:29:50;;;;;;;22.00;8.27;;;;;;;5.41;78.32;102777.16;4993198;28;20022;-56
2021/12/20 11:32:18;;;;;;;25.45;8.25;;;;;;;5.35;78.23;102756.06;4993201;28;20077;-56
2021/12/20 11:34:44;;;;;;;23.50;9.07;;;;;;;5.48;77.35;102775.19;4993932;28;20062;-56
2021/12/20 11:37:15;;;;;;;21.60;7.88;;;;;;;5.43;77.81;102764.06;4993459;28;20482;-56
2021/12/20 11:39:40;;;;;;;20.45;7.93;;;;;;;5.52;78.38;102767.34;4993328;28;20085;-57